Time;durP1;ratioP1;P1;durP2;ratioP2;P2;SDS_P1;SDS_P2;PMS_P1;PMS_P2;Temp;Humidity;BMP_temperature;BMP_pressure;BME280_temperature;BME280_humidity;BME280_pressure;Samples;Min_cycle;Max_cycle;Signal;HPM_P1;HPM_P2
2022/11/14 00:00:21;;;;;;;21.80;6.78;;;;;;;-142.37;100.00;59669.53;5034540;28;20033;-70
2022/11/14 00:02:46;;;;;;;21.45;6.18;;;;;;;-142.37;100.00;59669.53;5034411;28;20470;-69
2022/11/14 00:05:12;;;;;;;18.08;6.22;;;;;;;-142.37;100.00;59669.53;5032900;28;20030;-69
2022/11/14 00:07:37;;;;;;;22.55;6.68;;;;;;;-142.37;100.00;59669.53;5034388;28;20041;-70
2022/11/14 00:10:03;;;;;;;13.57;5.75;;;;;;;-142.37;100.00;59669.53;5034867;28;20061;-70
2022/11/14 00:12:29;;;;;;;17.55;6.18;;;;;;;-142.37;100.00;59669.53;5033161;28;20599;-71
2022/11/14 00:14:54;;;;;;;15.73;6.53;;;;;;;-142.37;100.00;59669.53;5034441;28;20116;-72
2022/11/14 00:17:20;;;;;;;15.98;6.28;;;;;;;-142.37;100.00;59669.53;5034006;28;20037;-70
2022/11/14 00:19:46;;;;;;;14.30;6.43;;;;;;;-142.37;100.00;59669.53;5032902;28;20057;-71
2022/11/14 00:22:11;;;;;;;14.85;5.57;;;;;;;-142.37;100.00;59669.53;5033880;28;20437;-71
2022/11/14 00:24:37;;;;;;;17.77;6.40;;;;;;;-142.37;100.00;59669.53;5033725;28;20359;-70
2022/11/14 00:27:02;;;;;;;14.48;6.57;;;;;;;-142.37;100.00;59669.53;5032542;28;20077;-72
2022/11/14 00:29:28;;;;;;;17.50;6.22;;;;;;;-142.37;100.00;59669.53;5034163;28;20025;-70
2022/11/14 00:31:54;;;;;;;13.27;6.72;;;;;;;-142.37;100.00;59669.53;5033860;28;20080;-71
2022/11/14 00:34:19;;;;;;;15.13;6.50;;;;;;;-142.37;100.00;59669.53;5034031;28;20022;-69
2022/11/14 00:36:45;;;;;;;14.40;6.47;;;;;;;-142.37;100.00;59669.53;5033696;28;20498;-70
2022/11/14 00:39:14;;;;;;;14.23;6.50;;;;;;;-142.37;100.00;59669.53;5033791;28;20451;-70
2022/11/14 00:41:40;;;;;;;14.32;5.68;;;;;;;-142.37;100.00;59669.53;5032617;28;20117;-69
2022/11/14 00:44:06;;;;;;;15.82;6.40;;;;;;;-142.37;100.00;59669.53;5034103;28;20030;-70
2022/11/14 00:46:33;;;;;;;11.93;6.18;;;;;;;-142.37;100.00;59669.53;5033712;28;20025;-70
2022/11/14 00:48:58;;;;;;;16.05;7.07;;;;;;;-142.37;100.00;59669.53;5033343;28;20394;-70
2022/11/14 00:51:24;;;;;;;15.73;6.80;;;;;;;-142.37;100.00;59669.53;5031843;28;20045;-71
2022/11/14 00:53:49;;;;;;;17.05;6.50;;;;;;;-142.37;100.00;59669.53;5033692;28;20041;-68
2022/11/14 00:56:15;;;;;;;14.35;6.57;;;;;;;-142.37;100.00;59669.53;5032146;28;20033;-70
2022/11/14 00:58:41;;;;;;;12.73;5.28;;;;;;;-142.37;100.00;59669.53;5033540;28;20028;-70
2022/11/14 01:01:06;;;;;;;14.40;6.57;;;;;;;-142.37;100.00;59669.53;5031861;28;20037;-69
2022/11/14 01:03:32;;;;;;;18.08;7.07;;;;;;;-142.37;100.00;59669.53;5033246;28;20482;-70
2022/11/14 01:06:03;;;;;;;12.98;6.35;;;;;;;-142.37;100.00;59669.53;5033253;28;20029;-70
2022/11/14 01:08:29;;;;;;;14.15;7.28;;;;;;;-142.37;100.00;59669.53;5032088;28;20032;-73
2022/11/14 01:10:55;;;;;;;15.18;7.38;;;;;;;-142.37;100.00;59669.53;5032158;28;20025;-70
2022/11/14 01:13:20;;;;;;;15.65;6.80;;;;;;;-142.37;100.00;59669.53;5032908;28;20029;-70
2022/11/14 01:15:48;;;;;;;16.48;7.00;;;;;;;-142.37;100.00;59669.53;5033208;28;20033;-69
2022/11/14 01:18:19;;;;;;;20.70;7.93;;;;;;;-142.37;100.00;59669.53;5032974;28;20039;-70
2022/11/14 01:20:47;;;;;;;10.75;6.45;;;;;;;-142.37;100.00;59669.53;5033111;28;20026;-70
2022/11/14 01:23:15;;;;;;;14.82;8.07;;;;;;;-142.37;100.00;59669.53;5032996;28;20033;-70
2022/11/14 01:25:41;;;;;;;14.15;7.47;;;;;;;-142.37;100.00;59669.53;5032919;28;20092;-70
2022/11/14 01:28:13;;;;;;;11.30;6.90;;;;;;;-142.37;100.00;59669.53;5032949;28;20417;-71
2022/11/14 01:30:39;;;;;;;13.05;6.53;;;;;;;-142.37;100.00;59669.53;5032887;28;20453;-72
2022/11/14 01:33:05;;;;;;;12.20;6.63;;;;;;;-142.37;100.00;59669.53;5032397;28;20105;-70
2022/11/14 01:35:33;;;;;;;12.45;7.57;;;;;;;-142.37;100.00;59669.53;5032880;28;20462;-70
2022/11/14 01:37:59;;;;;;;15.13;8.02;;;;;;;-142.37;100.00;59669.53;5032800;28;20029;-69
2022/11/14 01:40:25;;;;;;;15.82;8.20;;;;;;;-142.37;100.00;59669.53;5031470;28;20441;-70
2022/11/14 01:43:15;;;;;;;12.50;7.70;;;;;;;-142.37;100.00;59669.53;5032627;28;20029;-68
2022/11/14 01:46:16;;;;;;;17.27;8.73;;;;;;;-142.37;100.00;59669.53;5032500;28;20034;-71
2022/11/14 01:49:07;;;;;;;16.35;8.20;;;;;;;-142.37;100.00;59669.53;5031184;28;20076;-71
2022/11/14 01:52:04;;;;;;;13.73;7.93;;;;;;;-142.37;100.00;59669.53;5031054;28;20108;-67
2022/11/14 01:54:35;;;;;;;15.52;8.38;;;;;;;-142.37;100.00;59669.53;5023866;28;20042;-70
2022/11/14 01:57:03;;;;;;;13.82;7.50;;;;;;;-142.37;100.00;59669.53;5030834;28;20029;-70
2022/11/14 01:59:37;;;;;;;16.33;7.38;;;;;;;-142.37;100.00;59669.53;5031080;28;20053;-70
2022/11/14 02:02:07;;;;;;;13.98;7.28;;;;;;;-142.37;100.00;59669.53;5031051;28;20025;-68
2022/11/14 02:04:38;;;;;;;14.05;7.97;;;;;;;-142.37;100.00;59669.53;5031544;28;20025;-69
2022/11/14 02:07:05;;;;;;;18.75;8.80;;;;;;;-142.37;100.00;59669.53;5031945;28;20052;-70
2022/11/14 02:09:40;;;;;;;13.88;8.15;;;;;;;-142.37;100.00;59669.53;5032110;28;20487;-71
2022/11/14 02:12:09;;;;;;;14.45;8.00;;;;;;;-142.37;100.00;59669.53;5032545;28;20033;-70
2022/11/14 02:14:36;;;;;;;17.38;7.55;;;;;;;-142.37;100.00;59669.53;5032148;28;20116;-71
2022/11/14 02:17:03;;;;;;;17.80;8.27;;;;;;;-142.37;100.00;59669.53;5030222;28;20398;-70
2022/11/14 02:19:48;;;;;;;12.65;7.13;;;;;;;-142.37;100.00;59669.53;5030843;28;20053;-68
2022/11/14 02:22:14;;;;;;;15.63;7.68;;;;;;;-142.37;100.00;59669.53;5024425;28;20052;-70
2022/11/14 02:24:41;;;;;;;13.25;7.68;;;;;;;-142.37;100.00;59669.53;5032114;28;20058;-71
2022/11/14 02:27:08;;;;;;;16.77;7.38;;;;;;;-142.37;100.00;59669.53;5031696;28;20126;-71
2022/11/14 02:29:34;;;;;;;16.60;8.15;;;;;;;-142.37;100.00;59669.53;5032250;28;20041;-70
2022/11/14 02:32:02;;;;;;;14.23;8.30;;;;;;;-142.37;100.00;59669.53;5032387;28;20041;-71
2022/11/14 02:34:27;;;;;;;19.40;8.98;;;;;;;-142.37;100.00;59669.53;5032082;28;20026;-70
2022/11/14 02:36:53;;;;;;;19.58;8.23;;;;;;;-142.37;100.00;59669.53;5032023;28;20036;-70
2022/11/14 02:39:19;;;;;;;13.38;6.60;;;;;;;-142.37;100.00;59669.53;5031798;28;20041;-71
2022/11/14 02:41:44;;;;;;;15.55;7.80;;;;;;;-142.37;100.00;59669.53;5031911;28;20100;-71
2022/11/14 02:44:10;;;;;;;15.13;6.95;;;;;;;-142.37;100.00;59669.53;5032113;28;20033;-72
2022/11/14 02:46:36;;;;;;;12.57;7.55;;;;;;;-142.37;100.00;59669.53;5032271;28;20038;-71
2022/11/14 02:49:01;;;;;;;18.13;8.25;;;;;;;-142.37;100.00;59669.53;5032331;28;20093;-71
2022/11/14 02:51:27;;;;;;;18.95;8.52;;;;;;;-142.37;100.00;59669.53;5032312;28;20026;-69
2022/11/14 02:53:53;;;;;;;20.58;8.32;;;;;;;-142.37;100.00;59669.53;5030733;28;20029;-68
2022/11/14 02:56:18;;;;;;;14.73;6.95;;;;;;;-142.37;100.00;59669.53;5031690;28;20033;-69
2022/11/14 02:58:44;;;;;;;14.65;6.45;;;;;;;-142.37;100.00;59669.53;5031885;28;20034;-70
2022/11/14 03:01:10;;;;;;;13.55;7.40;;;;;;;-142.37;100.00;59669.53;5030484;28;20030;-70
2022/11/14 03:03:36;;;;;;;12.85;7.47;;;;;;;-142.37;100.00;59669.53;5030583;28;20585;-70
2022/11/14 03:06:03;;;;;;;19.80;8.27;;;;;;;-142.37;100.00;59669.53;5032036;28;20033;-71
2022/11/14 03:08:29;;;;;;;17.10;7.68;;;;;;;-142.37;100.00;59669.53;5030490;28;20049;-70
2022/11/14 03:10:55;;;;;;;18.05;7.10;;;;;;;-142.37;100.00;59669.53;5031500;28;20067;-70
2022/11/14 03:13:21;;;;;;;14.20;6.68;;;;;;;-142.37;100.00;59669.53;5031532;28;20401;-70
2022/11/14 03:15:46;;;;;;;17.42;7.38;;;;;;;-142.37;100.00;59669.53;5034566;28;20030;-69
2022/11/14 03:18:12;;;;;;;16.55;7.72;;;;;;;-142.37;100.00;59669.53;5034401;28;20125;-70
2022/11/14 03:20:38;;;;;;;16.80;7.47;;;;;;;-142.37;100.00;59669.53;5035466;28;20089;-69
2022/11/14 03:23:04;;;;;;;14.32;7.22;;;;;;;-142.37;100.00;59669.53;5034972;28;20080;-71
2022/11/14 03:25:29;;;;;;;11.70;6.97;;;;;;;-142.37;100.00;59669.53;5035239;28;20061;-70
2022/11/14 03:27:55;;;;;;;12.85;7.18;;;;;;;-142.37;100.00;59669.53;5033773;28;20021;-69
2022/11/14 03:30:20;;;;;;;11.80;7.15;;;;;;;-142.37;100.00;59669.53;5033911;28;20398;-70
2022/11/14 03:32:46;;;;;;;15.80;6.53;;;;;;;-142.37;100.00;59669.53;5034029;28;20067;-70
2022/11/14 03:35:11;;;;;;;12.00;7.40;;;;;;;-142.37;100.00;59669.53;5035233;28;20030;-70
2022/11/14 03:37:37;;;;;;;12.77;6.90;;;;;;;-142.37;100.00;59669.53;5033662;28;20025;-70
2022/11/14 03:40:03;;;;;;;13.40;6.90;;;;;;;-142.37;100.00;59669.53;5034895;28;20534;-71
2022/11/14 03:42:33;;;;;;;14.07;7.15;;;;;;;-142.37;100.00;59669.53;5034801;28;20030;-68
2022/11/14 03:44:58;;;;;;;14.68;7.63;;;;;;;-142.37;100.00;59669.53;5033480;28;20165;-70
2022/11/14 03:47:24;;;;;;;14.68;7.00;;;;;;;-142.37;100.00;59669.53;5033655;28;20149;-69
2022/11/14 03:49:49;;;;;;;17.08;8.45;;;;;;;-142.37;100.00;59669.53;5033587;28;20025;-70
2022/11/14 03:52:15;;;;;;;11.68;7.00;;;;;;;-142.37;100.00;59669.53;5035112;28;20036;-70
2022/11/14 03:54:40;;;;;;;16.70;7.68;;;;;;;-142.37;100.00;59669.53;5034852;28;20562;-71
2022/11/14 03:57:06;;;;;;;16.25;7.45;;;;;;;-142.37;100.00;59669.53;5034316;28;20044;-69
2022/11/14 03:59:32;;;;;;;14.80;7.82;;;;;;;-142.37;100.00;59669.53;5034698;28;20478;-70
2022/11/14 04:01:57;;;;;;;19.40;8.73;;;;;;;-142.37;100.00;59669.53;5034839;28;20036;-69
2022/11/14 04:04:23;;;;;;;12.38;7.90;;;;;;;-142.37;100.00;59669.53;5034563;28;20037;-70
2022/11/14 04:06:48;;;;;;;16.70;8.77;;;;;;;-142.37;100.00;59669.53;5034770;28;20022;-70
2022/11/14 04:09:14;;;;;;;12.35;8.00;;;;;;;-142.37;100.00;59669.53;5034120;28;20036;-70
2022/11/14 04:11:39;;;;;;;15.95;8.75;;;;;;;-142.37;100.00;59669.53;5034330;28;20129;-70
2022/11/14 04:14:05;;;;;;;22.38;8.93;;;;;;;-142.37;100.00;59669.53;5034463;28;20033;-70
2022/11/14 04:16:31;;;;;;;14.38;8.38;;;;;;;-142.37;100.00;59669.53;5034454;28;20033;-69
2022/11/14 04:18:56;;;;;;;18.88;9.90;;;;;;;-142.37;100.00;59669.53;5034205;28;20034;-68
2022/11/14 04:21:22;;;;;;;20.90;9.57;;;;;;;-142.37;100.00;59669.53;5034293;28;20022;-70
2022/11/14 04:23:48;;;;;;;21.23;11.02;;;;;;;-142.37;100.00;59669.53;5032615;28;20494;-70
2022/11/14 04:26:13;;;;;;;21.63;10.05;;;;;;;-142.37;100.00;59669.53;5031931;28;20029;-70
2022/11/14 04:28:39;;;;;;;20.02;10.23;;;;;;;-142.37;100.00;59669.53;5034381;28;20022;-71
2022/11/14 04:31:04;;;;;;;20.05;9.85;;;;;;;-142.37;100.00;59669.53;5065399;28;20031;-72
2022/11/14 04:33:30;;;;;;;19.75;10.00;;;;;;;-142.37;100.00;59669.53;5033944;28;20056;-71
2022/11/14 04:35:56;;;;;;;21.60;10.65;;;;;;;-142.37;100.00;59669.53;5032631;28;20029;-70
2022/11/14 04:38:21;;;;;;;19.20;11.02;;;;;;;-142.37;100.00;59669.53;5032157;28;20036;-70
2022/11/14 04:40:49;;;;;;;19.40;10.40;;;;;;;-142.37;100.00;59669.53;5033697;28;20533;-70
2022/11/14 04:43:15;;;;;;;17.45;10.52;;;;;;;-142.37;100.00;59669.53;5033520;28;20028;-70
2022/11/14 04:45:40;;;;;;;21.52;10.48;;;;;;;-142.37;100.00;59669.53;5065768;28;20025;-70
2022/11/14 04:48:06;;;;;;;25.67;11.50;;;;;;;-142.37;100.00;59669.53;5033635;28;20034;-70
2022/11/14 04:50:31;;;;;;;32.15;11.75;;;;;;;-142.37;100.00;59669.53;5032002;28;20029;-71
2022/11/14 04:52:57;;;;;;;27.70;10.68;;;;;;;-142.37;100.00;59669.53;5065600;28;20120;-69
2022/11/14 04:55:22;;;;;;;27.80;11.80;;;;;;;-142.37;100.00;59669.53;5032801;28;20103;-71
2022/11/14 04:57:54;;;;;;;32.38;11.13;;;;;;;-142.37;100.00;59669.53;5065171;28;20041;-70
2022/11/14 05:00:20;;;;;;;22.05;9.07;;;;;;;-142.37;100.00;59669.53;5033339;28;20026;-71
2022/11/14 05:02:45;;;;;;;23.38;9.90;;;;;;;-142.37;100.00;59669.53;5032089;28;20029;-70
2022/11/14 05:05:11;;;;;;;25.27;10.30;;;;;;;-142.37;100.00;59669.53;5033169;28;20029;-70
2022/11/14 05:07:36;;;;;;;25.30;11.30;;;;;;;-142.37;100.00;59669.53;5033183;28;20055;-70
2022/11/14 05:10:02;;;;;;;29.40;11.02;;;;;;;-142.37;100.00;59669.53;5064963;28;20486;-71
2022/11/14 05:12:28;;;;;;;26.83;11.40;;;;;;;-142.37;100.00;59669.53;5032934;28;20473;-71
2022/11/14 05:14:53;;;;;;;25.92;11.15;;;;;;;-142.37;100.00;59669.53;5065047;28;20040;-70
2022/11/14 05:17:19;;;;;;;23.98;10.27;;;;;;;-142.37;100.00;59669.53;5032774;28;20030;-72
2022/11/14 05:19:44;;;;;;;22.88;10.05;;;;;;;-142.37;100.00;59669.53;5032572;28;20033;-71
2022/11/14 05:22:10;;;;;;;21.60;9.85;;;;;;;-142.37;100.00;59669.53;5064625;28;20124;-69
2022/11/14 05:24:36;;;;;;;24.50;10.57;;;;;;;-142.37;100.00;59669.53;5031283;28;20041;-70
2022/11/14 05:27:01;;;;;;;25.08;9.98;;;;;;;-142.37;100.00;59669.53;5032500;28;20022;-69
2022/11/14 05:29:27;;;;;;;28.70;10.02;;;;;;;-142.37;100.00;59669.53;5064117;28;20025;-72
2022/11/14 05:31:52;;;;;;;21.98;9.57;;;;;;;-142.37;100.00;59669.53;5031077;28;20474;-71
2022/11/14 05:34:18;;;;;;;26.00;10.27;;;;;;;-142.37;100.00;59669.53;5032749;28;20037;-71
2022/11/14 05:36:44;;;;;;;20.92;8.38;;;;;;;-142.37;100.00;59669.53;5032230;28;20052;-68
2022/11/14 05:39:09;;;;;;;17.25;7.85;;;;;;;-142.37;100.00;59669.53;5031038;28;20037;-70
2022/11/14 05:41:35;;;;;;;16.42;8.18;;;;;;;-142.37;100.00;59669.53;5032161;28;20108;-71
2022/11/14 05:44:03;;;;;;;19.67;9.48;;;;;;;-142.37;100.00;59669.53;5031414;28;20017;-70
2022/11/14 05:46:29;;;;;;;21.48;8.48;;;;;;;-142.37;100.00;59669.53;5032454;28;20064;-72
2022/11/14 05:48:54;;;;;;;18.55;7.43;;;;;;;-142.37;100.00;59669.53;5032015;28;20052;-71
2022/11/14 05:51:20;;;;;;;17.13;8.32;;;;;;;-142.37;100.00;59669.53;5031696;28;20063;-72
2022/11/14 05:53:46;;;;;;;18.33;7.28;;;;;;;-142.37;100.00;59669.53;5032335;28;20484;-72
2022/11/14 05:56:12;;;;;;;16.05;7.40;;;;;;;-142.37;100.00;59669.53;5032968;28;20033;-71
2022/11/14 05:58:38;;;;;;;17.15;7.50;;;;;;;-142.37;100.00;59669.53;5030850;28;20068;-72
2022/11/14 06:01:06;;;;;;;14.90;6.82;;;;;;;-142.37;100.00;59669.53;5030260;28;20037;-72
2022/11/14 06:03:34;;;;;;;13.93;6.72;;;;;;;-142.37;100.00;59669.53;5031931;28;20029;-72
2022/11/14 06:06:05;;;;;;;10.80;6.10;;;;;;;-142.37;100.00;59669.53;5030606;28;20026;-71
2022/11/14 06:08:31;;;;;;;15.27;7.15;;;;;;;-142.37;100.00;59669.53;5031578;28;20074;-71
2022/11/14 06:11:04;;;;;;;20.67;6.88;;;;;;;-142.37;100.00;59669.53;5032164;28;20029;-70
2022/11/14 06:13:30;;;;;;;15.77;6.70;;;;;;;-142.37;100.00;59669.53;5032098;28;20029;-73
2022/11/14 06:16:03;;;;;;;13.77;6.90;;;;;;;-142.37;100.00;59669.53;5031999;28;20025;-70
2022/11/14 06:18:30;;;;;;;14.23;6.22;;;;;;;-142.37;100.00;59669.53;5032004;28;20035;-70
2022/11/14 06:21:04;;;;;;;11.10;5.53;;;;;;;-142.37;100.00;59669.53;5031076;28;20029;-72
2022/11/14 06:23:30;;;;;;;12.87;5.50;;;;;;;-142.37;100.00;59669.53;5031892;28;20033;-71
2022/11/14 06:26:04;;;;;;;13.50;5.53;;;;;;;-142.37;100.00;59669.53;5029095;28;20658;-72
2022/11/14 06:28:30;;;;;;;10.43;6.13;;;;;;;-142.37;100.00;59669.53;5063707;28;20387;-72
2022/11/14 06:30:58;;;;;;;9.43;4.50;;;;;;;-142.37;100.00;59669.53;5031238;28;20393;-70
2022/11/14 06:33:25;;;;;;;5.65;3.25;;;;;;;-142.37;100.00;59669.53;5031695;28;20025;-71
2022/11/14 06:35:55;;;;;;;6.93;3.03;;;;;;;-142.37;100.00;59669.53;5031409;28;20508;-70
2022/11/14 06:38:21;;;;;;;4.43;2.58;;;;;;;-142.37;100.00;59669.53;5030225;28;20041;-71
2022/11/14 06:40:46;;;;;;;6.38;2.60;;;;;;;-142.37;100.00;59669.53;5030913;28;20433;-71
2022/11/14 06:43:12;;;;;;;5.82;2.22;;;;;;;-142.37;100.00;59669.53;5030999;28;20068;-71
2022/11/14 06:45:37;;;;;;;3.05;1.70;;;;;;;-142.37;100.00;59669.53;5029653;28;20389;-70
2022/11/14 06:48:03;;;;;;;4.72;1.98;;;;;;;-142.37;100.00;59669.53;5030180;28;20042;-73
2022/11/14 06:50:29;;;;;;;4.53;2.22;;;;;;;-142.37;100.00;59669.53;5033994;28;20124;-73
2022/11/14 06:52:57;;;;;;;4.70;1.48;;;;;;;-142.37;100.00;59669.53;5033280;28;20036;-71
2022/11/14 06:55:22;;;;;;;3.47;1.60;;;;;;;-142.37;100.00;59669.53;5033283;28;20022;-71
2022/11/14 06:57:54;;;;;;;3.10;1.20;;;;;;;-142.37;100.00;59669.53;5035223;28;20086;-72
2022/11/14 07:00:21;;;;;;;4.25;2.35;;;;;;;-142.37;100.00;59669.53;5034247;28;20025;-72
2022/11/14 07:02:48;;;;;;;7.55;2.05;;;;;;;-142.37;100.00;59669.53;5034694;28;20394;-72
2022/11/14 07:05:13;;;;;;;2.28;0.70;;;;;;;-142.37;100.00;59669.53;5032640;28;20035;-73
2022/11/14 07:07:39;;;;;;;9.95;6.15;;;;;;;-142.37;100.00;59669.53;5034671;28;20105;-73
2022/11/14 07:10:05;;;;;;;9.27;5.15;;;;;;;-142.37;100.00;59669.53;5034112;28;20461;-71
2022/11/14 07:12:31;;;;;;;2.28;1.15;;;;;;;-142.37;100.00;59669.53;5033215;28;20098;-71
2022/11/14 07:14:58;;;;;;;2.22;1.25;;;;;;;-142.37;100.00;59669.53;5034022;28;20034;-72
2022/11/14 07:17:24;;;;;;;4.38;1.20;;;;;;;-142.37;100.00;59669.53;5034450;28;20049;-72
2022/11/14 07:19:49;;;;;;;3.47;1.40;;;;;;;-142.37;100.00;59669.53;5033159;28;20445;-72
2022/11/14 07:22:15;;;;;;;7.30;2.00;;;;;;;-142.37;100.00;59669.53;5032470;28;20026;-71
2022/11/14 07:24:41;;;;;;;2.25;1.13;;;;;;;-142.37;100.00;59669.53;5033814;28;20521;-71
2022/11/14 07:27:09;;;;;;;3.75;1.25;;;;;;;-142.37;100.00;59669.53;5034135;28;20029;-71
2022/11/14 07:29:35;;;;;;;4.03;1.33;;;;;;;-142.37;100.00;59669.53;5032734;28;20044;-72
2022/11/14 07:32:01;;;;;;;4.40;1.30;;;;;;;-142.37;100.00;59669.53;5033948;28;20041;-71
2022/11/14 07:34:26;;;;;;;2.90;1.30;;;;;;;-142.37;100.00;59669.53;5034056;28;20037;-72
2022/11/14 07:36:53;;;;;;;6.15;2.95;;;;;;;-142.37;100.00;59669.53;5033778;28;20033;-72
2022/11/14 07:39:19;;;;;;;1.48;0.93;;;;;;;-142.37;100.00;59669.53;5033643;28;20033;-72
2022/11/14 07:41:46;;;;;;;4.65;1.65;;;;;;;-142.37;100.00;59669.53;5032411;28;20113;-70
2022/11/14 07:44:11;;;;;;;1.40;0.98;;;;;;;-142.37;100.00;59669.53;5032403;28;20049;-72
2022/11/14 07:46:37;;;;;;;3.25;1.10;;;;;;;-142.37;100.00;59669.53;5033670;28;20037;-70
2022/11/14 07:49:02;;;;;;;4.18;1.02;;;;;;;-142.37;100.00;59669.53;5032167;28;20504;-74
2022/11/14 07:51:28;;;;;;;2.58;0.85;;;;;;;-142.37;100.00;59669.53;5034230;28;20056;-72
2022/11/14 07:53:54;;;;;;;1.65;1.00;;;;;;;-142.37;100.00;59669.53;5033576;28;20034;-72
2022/11/14 07:56:24;;;;;;;2.28;0.80;;;;;;;-142.37;100.00;59669.53;5032638;28;20057;-70
2022/11/14 07:58:50;;;;;;;2.67;0.90;;;;;;;-142.37;100.00;59669.53;5034257;28;20025;-72
2022/11/14 08:01:15;;;;;;;3.67;1.90;;;;;;;-142.37;100.00;59669.53;5031727;28;20128;-71
2022/11/14 08:03:41;;;;;;;1.30;0.70;;;;;;;-142.37;100.00;59669.53;5032512;28;20064;-72
2022/11/14 08:06:09;;;;;;;12.68;10.70;;;;;;;-142.37;100.00;59669.53;5033680;28;20044;-68
2022/11/14 08:08:36;;;;;;;1.48;1.08;;;;;;;-142.37;100.00;59669.53;5065628;28;20037;-71
2022/11/14 08:11:02;;;;;;;1.05;0.47;;;;;;;-142.37;100.00;59669.53;5033872;28;20155;-72
2022/11/14 08:13:28;;;;;;;0.88;0.40;;;;;;;-142.37;100.00;59669.53;5033662;28;20117;-71
2022/11/14 08:15:54;;;;;;;3.85;0.80;;;;;;;-142.37;100.00;59669.53;5033343;28;20505;-72
2022/11/14 08:18:20;;;;;;;1.80;1.17;;;;;;;-142.37;100.00;59669.53;5032215;28;20414;-70
2022/11/14 08:20:47;;;;;;;1.42;0.50;;;;;;;-142.37;100.00;59669.53;5033658;28;20033;-73
2022/11/14 08:23:13;;;;;;;1.45;0.40;;;;;;;-142.37;100.00;59669.53;5033246;28;20053;-72
2022/11/14 08:25:40;;;;;;;1.60;1.33;;;;;;;-142.37;100.00;59669.53;5033835;28;20053;-72
2022/11/14 08:28:05;;;;;;;0.30;0.20;;;;;;;-142.37;100.00;59669.53;5034238;28;20052;-72
2022/11/14 08:30:31;;;;;;;3.75;0.70;;;;;;;-142.37;100.00;59669.53;5033426;28;20077;-73
2022/11/14 08:32:59;;;;;;;2.58;0.55;;;;;;;-142.37;100.00;59669.53;5032923;28;20033;-71
2022/11/14 08:35:25;;;;;;;1.83;0.70;;;;;;;-142.37;100.00;59669.53;5033472;28;20037;-71
2022/11/14 08:37:51;;;;;;;2.88;0.50;;;;;;;-142.37;100.00;59669.53;5032097;28;20040;-70
2022/11/14 08:40:16;;;;;;;6.05;1.58;;;;;;;-142.37;100.00;59669.53;5033176;28;20029;-72
2022/11/14 08:42:42;;;;;;;0.20;0.20;;;;;;;-142.37;100.00;59669.53;5031945;28;20029;-72
2022/11/14 08:45:08;;;;;;;0.57;0.30;;;;;;;-142.37;100.00;59669.53;5033183;28;20505;-71
2022/11/14 08:47:33;;;;;;;2.63;0.43;;;;;;;-142.37;100.00;59669.53;5031829;28;20116;-70
2022/11/14 08:49:59;;;;;;;1.40;0.60;;;;;;;-142.37;100.00;59669.53;5033178;28;20033;-69
2022/11/14 08:52:25;;;;;;;4.63;2.85;;;;;;;-142.37;100.00;59669.53;5033091;28;20045;-70
2022/11/14 08:54:50;;;;;;;1.27;0.50;;;;;;;-142.37;100.00;59669.53;5033082;28;20086;-71
2022/11/14 08:57:16;;;;;;;1.70;0.60;;;;;;;-142.37;100.00;59669.53;5031725;28;20049;-72
2022/11/14 08:59:42;;;;;;;0.98;0.38;;;;;;;-142.37;100.00;59669.53;5032947;28;20057;-69
2022/11/14 09:02:12;;;;;;;0.68;0.50;;;;;;;-142.37;100.00;59669.53;5032833;28;20056;-70
2022/11/14 09:04:38;;;;;;;2.92;0.50;;;;;;;-142.37;100.00;59669.53;5032760;28;20025;-71
2022/11/14 09:07:04;;;;;;;1.38;0.80;;;;;;;-142.37;100.00;59669.53;5032701;28;20067;-69
2022/11/14 09:09:30;;;;;;;3.83;2.42;;;;;;;-142.37;100.00;59669.53;5032554;28;20560;-72
2022/11/14 09:11:56;;;;;;;0.98;0.50;;;;;;;-142.37;100.00;59669.53;5032560;28;20029;-71
2022/11/14 09:14:21;;;;;;;1.00;0.68;;;;;;;-142.37;100.00;59669.53;5031125;28;20029;-71
2022/11/14 09:16:47;;;;;;;0.50;0.38;;;;;;;-142.37;100.00;59669.53;5032034;28;20064;-71
2022/11/14 09:19:13;;;;;;;1.45;0.20;;;;;;;-142.37;100.00;59669.53;5032485;28;20155;-70
2022/11/14 09:21:38;;;;;;;0.55;0.10;;;;;;;-142.37;100.00;59669.53;5031303;28;20084;-70
2022/11/14 09:24:04;;;;;;;0.20;0.10;;;;;;;-142.37;100.00;59669.53;5030392;28;20108;-71
2022/11/14 09:26:30;;;;;;;3.95;2.88;;;;;;;-142.37;100.00;59669.53;5034134;28;20034;-72
2022/11/14 09:28:56;;;;;;;1.40;0.85;;;;;;;-142.37;100.00;59669.53;5032593;28;20355;-70
2022/11/14 09:31:22;;;;;;;3.53;1.10;;;;;;;-142.37;100.00;59669.53;5032727;28;20029;-71
2022/11/14 09:33:47;;;;;;;0.40;0.20;;;;;;;-142.37;100.00;59669.53;5030896;28;20032;-70
2022/11/14 09:36:14;;;;;;;0.75;0.38;;;;;;;-142.37;100.00;59669.53;5032436;28;20120;-71
2022/11/14 09:38:44;;;;;;;0.30;0.30;;;;;;;-142.37;100.00;59669.53;5032283;28;20033;-70
2022/11/14 09:41:26;;;;;;;1.52;0.30;;;;;;;-142.37;100.00;59669.53;5031910;28;20025;-72
2022/11/14 09:44:12;;;;;;;0.50;0.20;;;;;;;-142.37;100.00;59669.53;5032191;28;20037;-73
2022/11/14 09:46:41;;;;;;;1.67;0.65;;;;;;;-142.37;100.00;59669.53;5030954;28;20394;-72
2022/11/14 09:49:34;;;;;;;0.95;0.30;;;;;;;-142.37;100.00;59669.53;5032192;28;20425;-70
2022/11/14 09:52:10;;;;;;;1.80;0.40;;;;;;;-142.37;100.00;59669.53;5032555;28;20370;-72
2022/11/14 09:54:49;;;;;;;2.28;0.75;;;;;;;-142.37;100.00;59669.53;5032307;28;20115;-71
2022/11/14 09:57:17;;;;;;;0.70;0.40;;;;;;;-142.37;100.00;59669.53;5031739;28;20509;-71
2022/11/14 09:59:43;;;;;;;1.65;0.82;;;;;;;-142.37;100.00;59669.53;5030425;28;20029;-72
2022/11/14 10:02:37;;;;;;;2.35;1.30;;;;;;;-142.37;100.00;59669.53;5031869;28;20497;-71
2022/11/14 10:05:40;;;;;;;1.65;0.80;;;;;;;-142.37;100.00;59669.53;5031264;28;20040;-71
2022/11/14 10:08:40;;;;;;;1.48;0.90;;;;;;;-142.37;100.00;59669.53;5031940;28;20033;-71
2022/11/14 10:11:14;;;;;;;3.00;1.50;;;;;;;-142.37;100.00;59669.53;5015157;28;20183;-71
2022/11/14 10:14:03;;;;;;;8.75;4.25;;;;;;;-142.37;100.00;59669.53;5031795;28;20029;-69
2022/11/14 10:16:45;;;;;;;3.25;1.33;;;;;;;-142.37;100.00;59669.53;5031614;28;20057;-68
2022/11/14 10:19:29;;;;;;;8.80;1.58;;;;;;;-142.37;100.00;59669.53;5030470;28;20478;-70
2022/11/14 10:22:33;;;;;;;2.28;1.35;;;;;;;-142.37;100.00;59669.53;5031211;28;20029;-69
2022/11/14 10:25:16;;;;;;;2.53;1.42;;;;;;;-142.37;100.00;59669.53;5034863;28;20144;-72
2022/11/14 10:28:11;;;;;;;5.20;1.45;;;;;;;-142.37;100.00;59669.53;5036400;28;20401;-69
2022/11/14 10:30:54;;;;;;;1.70;1.08;;;;;;;-142.37;100.00;59669.53;5036392;28;20033;-71
2022/11/14 10:33:29;;;;;;;2.60;1.13;;;;;;;-142.37;100.00;59669.53;5036318;28;20029;-70
2022/11/14 10:36:18;;;;;;;16.02;9.60;;;;;;;-142.37;100.00;59669.53;5037648;28;20034;-72
2022/11/14 10:38:53;;;;;;;3.70;2.13;;;;;;;-142.37;100.00;59669.53;5036569;28;20034;-70
2022/11/14 10:41:21;;;;;;;3.53;1.98;;;;;;;-142.37;100.00;59669.53;5038072;28;20034;-72
2022/11/14 10:43:48;;;;;;;4.75;2.10;;;;;;;-142.37;100.00;59669.53;5036304;28;20033;-70
2022/11/14 10:46:26;;;;;;;1.95;1.77;;;;;;;-142.37;100.00;59669.53;5037720;28;20033;-72
2022/11/14 10:48:52;;;;;;;4.13;2.13;;;;;;;-142.37;100.00;59669.53;5037506;28;20025;-71
2022/11/14 10:51:25;;;;;;;7.82;1.95;;;;;;;-142.37;100.00;59669.53;5037328;28;20038;-71
2022/11/14 10:54:09;;;;;;;5.90;1.90;;;;;;;-142.37;100.00;59669.53;5036090;28;20512;-71
2022/11/14 10:56:48;;;;;;;4.65;1.95;;;;;;;-142.37;100.00;59669.53;5037229;28;20033;-70
2022/11/14 10:59:14;;;;;;;2.60;1.77;;;;;;;-142.37;100.00;59669.53;5036052;28;20063;-71
2022/11/14 11:01:52;;;;;;;3.13;2.00;;;;;;;-142.37;100.00;59669.53;5037499;28;20059;-71
2022/11/14 11:04:35;;;;;;;6.10;2.65;;;;;;;-142.37;100.00;59669.53;5037288;28;20070;-71
2022/11/14 11:07:07;;;;;;;4.90;2.53;;;;;;;-142.37;100.00;59669.53;5036943;28;20376;-69
2022/11/14 11:12:35;;;;;;;8.68;2.80;;;;;;;-142.37;100.00;59669.53;5037449;28;20040;-71